createdAt,value
2023-08-06T00:01:59.889Z,2.58
2023-08-06T00:04:27.520Z,2.30
2023-08-06T00:06:55.188Z,1.92
2023-08-06T00:09:22.884Z,2.75
2023-08-06T00:11:52.031Z,1.83
2023-08-06T00:14:19.759Z,1.10
2023-08-06T00:16:47.399Z,2.45
2023-08-06T00:19:15.590Z,2.00
2023-08-06T00:21:43.316Z,2.17
2023-08-06T00:24:10.993Z,1.48
2023-08-06T00:26:38.603Z,0.93
2023-08-06T00:29:07.624Z,1.33
2023-08-06T00:31:35.247Z,1.45
2023-08-06T00:34:04.039Z,2.30
2023-08-06T00:36:31.727Z,1.98
2023-08-06T00:38:59.385Z,1.98
2023-08-06T00:41:27.008Z,2.97
2023-08-06T00:43:54.663Z,3.00
2023-08-06T00:46:23.818Z,1.20
2023-08-06T00:48:52.712Z,2.00
2023-08-06T00:51:21.145Z,1.52
2023-08-06T00:53:48.860Z,2.28
2023-08-06T00:56:16.484Z,2.22
2023-08-06T00:58:46.724Z,2.22
2023-08-06T01:01:14.353Z,2.20
2023-08-06T01:03:43.403Z,2.10
2023-08-06T01:06:11.239Z,2.22
2023-08-06T01:08:46.684Z,2.70
2023-08-06T01:11:18.919Z,1.95
2023-08-06T01:13:50.120Z,2.58
2023-08-06T01:16:18.533Z,2.03
2023-08-06T01:18:50.499Z,2.17
2023-08-06T01:21:20.150Z,1.90
2023-08-06T01:23:48.307Z,1.30
2023-08-06T01:26:17.477Z,2.40
2023-08-06T01:28:50.294Z,2.63
2023-08-06T01:31:20.790Z,2.75
2023-08-06T01:33:49.596Z,2.10
2023-08-06T01:36:18.743Z,2.17
2023-08-06T01:38:47.872Z,2.35
2023-08-06T01:41:15.549Z,1.98
2023-08-06T01:43:43.171Z,1.85
2023-08-06T01:46:10.824Z,1.17
2023-08-06T01:48:38.543Z,2.15
2023-08-06T01:51:07.027Z,1.85
2023-08-06T01:53:34.796Z,1.35
2023-08-06T01:56:03.893Z,2.08
2023-08-06T01:58:31.506Z,1.48
2023-08-06T02:00:59.216Z,1.35
2023-08-06T02:03:26.916Z,1.77
2023-08-06T02:05:55.755Z,1.80
2023-08-06T02:08:23.612Z,2.13
2023-08-06T02:10:51.384Z,1.40
2023-08-06T02:13:20.461Z,1.70
2023-08-06T02:15:48.818Z,1.80
2023-08-06T02:18:16.898Z,1.45
2023-08-06T02:20:44.597Z,1.70
2023-08-06T02:23:12.260Z,1.75
2023-08-06T02:25:39.955Z,1.60
2023-08-06T02:28:07.672Z,3.20
2023-08-06T02:30:36.924Z,1.58
2023-08-06T02:33:04.785Z,1.30
2023-08-06T02:35:32.489Z,0.70
2023-08-06T02:38:00.120Z,1.85
2023-08-06T02:40:28.382Z,1.23
2023-08-06T02:42:57.265Z,1.73
2023-08-06T02:45:24.993Z,0.85
2023-08-06T02:47:54.610Z,1.35
2023-08-06T02:50:22.250Z,1.67
2023-08-06T02:52:51.268Z,2.13
2023-08-06T02:55:18.970Z,1.08
2023-08-06T02:57:49.122Z,1.23
2023-08-06T03:00:17.076Z,1.30
2023-08-06T03:02:44.830Z,1.52
2023-08-06T03:05:25.024Z,1.90
2023-08-06T03:07:52.717Z,1.27
2023-08-06T03:10:24.527Z,1.13
2023-08-06T03:12:54.604Z,1.55
2023-08-06T03:15:23.933Z,1.40
2023-08-06T03:17:52.971Z,0.60
2023-08-06T03:20:22.794Z,1.77
2023-08-06T03:22:52.001Z,1.27
2023-08-06T03:25:19.755Z,1.48
2023-08-06T03:27:49.979Z,2.17
2023-08-06T03:30:19.525Z,1.30
2023-08-06T03:32:48.292Z,1.63
2023-08-06T03:35:18.352Z,1.60
2023-08-06T03:37:46.110Z,1.23
2023-08-06T03:40:15.183Z,1.73
2023-08-06T03:42:42.874Z,1.17
2023-08-06T03:45:10.867Z,0.30
2023-08-06T03:47:40.183Z,1.70
2023-08-06T03:50:08.736Z,2.47
2023-08-06T03:52:36.432Z,0.95
2023-08-06T03:55:04.366Z,1.58
2023-08-06T03:57:33.409Z,1.40
2023-08-06T04:00:01.227Z,1.08
2023-08-06T04:02:32.536Z,1.60
2023-08-06T04:05:02.729Z,1.45
2023-08-06T04:07:30.389Z,0.98
2023-08-06T04:09:59.520Z,1.08
2023-08-06T04:12:27.476Z,1.30
2023-08-06T04:14:56.824Z,2.13
2023-08-06T04:17:24.729Z,0.98
2023-08-06T04:19:53.240Z,0.57
2023-08-06T04:22:21.735Z,1.48
2023-08-06T04:24:49.728Z,0.63
2023-08-06T04:27:18.206Z,0.40
2023-08-06T04:29:47.129Z,2.13
2023-08-06T04:32:16.151Z,1.63
2023-08-06T04:34:49.144Z,1.10
2023-08-06T04:37:17.538Z,1.45
2023-08-06T04:39:45.225Z,1.83
2023-08-06T04:42:13.030Z,1.55
2023-08-06T04:44:40.674Z,1.33
2023-08-06T04:47:08.279Z,1.70
2023-08-06T04:49:37.324Z,0.75
2023-08-06T04:52:05.239Z,1.30
2023-08-06T04:54:33.125Z,0.43
2023-08-06T04:57:00.892Z,1.67
2023-08-06T04:59:28.561Z,1.52
2023-08-06T05:01:56.429Z,1.05
2023-08-06T05:04:24.383Z,1.15
2023-08-06T05:06:53.397Z,0.52
2023-08-06T05:09:21.393Z,0.82
2023-08-06T05:11:49.252Z,0.73
2023-08-06T05:14:17.058Z,1.17
2023-08-06T05:16:44.736Z,0.75
2023-08-06T05:19:12.462Z,0.90
2023-08-06T05:21:40.089Z,0.82
2023-08-06T05:24:09.103Z,0.90
2023-08-06T05:26:36.769Z,0.30
2023-08-06T05:29:04.606Z,0.80
2023-08-06T05:31:32.259Z,0.85
2023-08-06T05:34:00.148Z,0.85
2023-08-06T05:36:30.069Z,0.90
2023-08-06T05:38:57.871Z,1.35
2023-08-06T05:41:27.025Z,0.65
2023-08-06T05:43:54.702Z,0.80
2023-08-06T05:46:22.361Z,0.95
2023-08-06T05:48:50.954Z,1.25
2023-08-06T05:51:18.976Z,0.90
2023-08-06T05:53:48.046Z,0.98
2023-08-06T05:56:16.075Z,0.43
2023-08-06T05:58:45.050Z,0.93
2023-08-06T06:01:12.872Z,2.03
2023-08-06T06:03:41.000Z,0.65
2023-08-06T06:06:08.754Z,1.02
2023-08-06T06:08:36.469Z,0.93
2023-08-06T06:11:04.204Z,1.20
2023-08-06T06:13:31.939Z,0.82
2023-08-06T06:16:01.105Z,0.47
2023-08-06T06:18:28.740Z,1.38
2023-08-06T06:20:56.426Z,0.75
2023-08-06T06:23:24.098Z,0.50
2023-08-06T06:25:52.701Z,0.77
2023-08-06T06:28:20.426Z,0.75
2023-08-06T06:30:48.035Z,1.95
2023-08-06T06:33:17.060Z,0.38
2023-08-06T06:35:44.745Z,0.95
2023-08-06T06:38:12.415Z,1.10
2023-08-06T06:40:40.062Z,0.80
2023-08-06T06:43:07.768Z,0.85
2023-08-06T06:45:35.490Z,0.80
2023-08-06T06:48:03.390Z,0.25
2023-08-06T06:50:32.528Z,0.20
2023-08-06T06:53:00.136Z,1.10
2023-08-06T06:55:27.781Z,0.20
2023-08-06T06:57:55.406Z,0.52
2023-08-06T07:00:23.098Z,0.68
2023-08-06T07:02:50.813Z,1.17
2023-08-06T07:05:18.541Z,0.70
2023-08-06T07:07:47.552Z,1.05
2023-08-06T07:10:15.199Z,0.52
2023-08-06T07:12:42.836Z,0.60
2023-08-06T07:15:10.969Z,0.00
2023-08-06T07:17:38.667Z,0.75
2023-08-06T07:20:07.361Z,1.23
2023-08-06T07:22:35.100Z,0.90
2023-08-06T07:25:04.312Z,1.77
2023-08-06T07:27:32.123Z,0.95
2023-08-06T07:30:00.245Z,0.77
2023-08-06T07:32:28.888Z,0.70
2023-08-06T07:35:00.503Z,0.73
2023-08-06T07:37:29.171Z,0.95
2023-08-06T07:39:56.869Z,0.50
2023-08-06T07:42:25.937Z,0.82
2023-08-06T07:44:54.163Z,0.77
2023-08-06T07:47:21.882Z,0.22
2023-08-06T07:49:49.659Z,0.60
2023-08-06T07:52:17.329Z,0.90
2023-08-06T07:54:46.328Z,0.75
2023-08-06T07:57:14.913Z,1.35
2023-08-06T07:59:44.048Z,0.70
2023-08-06T08:02:11.809Z,0.30
2023-08-06T08:04:39.560Z,0.75
2023-08-06T08:07:07.326Z,1.27
2023-08-06T08:09:36.569Z,0.40
2023-08-06T08:12:04.530Z,0.88
2023-08-06T08:14:36.447Z,0.35
2023-08-06T08:17:06.652Z,0.85
2023-08-06T08:19:34.531Z,0.40
2023-08-06T08:22:02.156Z,0.75
2023-08-06T08:24:31.580Z,0.50
2023-08-06T08:26:59.285Z,0.82
2023-08-06T08:29:27.050Z,0.00
2023-08-06T08:31:54.973Z,0.98
2023-08-06T08:34:24.291Z,0.88
2023-08-06T08:36:51.888Z,0.82
2023-08-06T08:39:19.718Z,0.57
2023-08-06T08:41:47.464Z,0.40
2023-08-06T08:44:17.669Z,0.55
2023-08-06T08:46:46.091Z,1.38
2023-08-06T08:49:13.748Z,0.30
2023-08-06T08:51:42.931Z,0.55
2023-08-06T08:54:10.979Z,0.40
2023-08-06T08:56:38.629Z,0.75
2023-08-06T08:59:06.313Z,0.50
2023-08-06T09:01:35.004Z,0.43
2023-08-06T09:04:02.874Z,0.77
2023-08-06T09:06:31.306Z,0.68
2023-08-06T09:09:03.581Z,0.75
2023-08-06T09:11:40.292Z,0.98
2023-08-06T09:14:08.217Z,0.90
2023-08-06T09:16:36.483Z,0.55
2023-08-06T09:19:08.941Z,0.50
2023-08-06T09:21:38.703Z,0.13
2023-08-06T09:24:11.377Z,0.43
2023-08-06T09:26:39.561Z,0.50
2023-08-06T09:29:08.472Z,0.82
2023-08-06T09:31:41.666Z,0.52
2023-08-06T09:34:12.629Z,0.80
2023-08-06T09:36:41.750Z,1.20
2023-08-06T09:39:16.621Z,0.52
2023-08-06T09:41:44.646Z,0.68
2023-08-06T09:44:17.139Z,0.60
2023-08-06T09:46:44.759Z,0.98
2023-08-06T09:49:12.360Z,0.03
2023-08-06T09:51:40.818Z,0.60
2023-08-06T09:54:21.004Z,0.73
2023-08-06T09:56:54.324Z,0.45
2023-08-06T09:59:22.355Z,0.80
2023-08-06T10:01:50.517Z,0.38
2023-08-06T10:04:24.467Z,0.55
2023-08-06T10:06:52.876Z,1.48
2023-08-06T10:09:21.292Z,0.75
2023-08-06T10:11:52.133Z,0.13
2023-08-06T10:14:23.619Z,0.30
2023-08-06T10:16:52.374Z,0.65
2023-08-06T10:19:20.422Z,0.43
2023-08-06T10:22:02.957Z,0.57
2023-08-06T10:24:47.063Z,0.80
2023-08-06T10:27:14.701Z,1.52
2023-08-06T10:29:43.703Z,0.68
2023-08-06T10:32:11.380Z,0.45
2023-08-06T10:34:55.281Z,0.28
2023-08-06T10:37:23.289Z,0.60
2023-08-06T10:39:51.999Z,0.65
2023-08-06T10:42:23.372Z,0.47
2023-08-06T10:45:09.885Z,0.50
2023-08-06T10:47:43.797Z,0.38
2023-08-06T10:50:13.763Z,0.45
2023-08-06T10:52:41.480Z,0.38
2023-08-06T10:55:10.234Z,0.55
2023-08-06T10:57:38.018Z,0.13
2023-08-06T11:00:16.153Z,0.20
2023-08-06T11:02:46.228Z,0.47
2023-08-06T11:05:14.174Z,0.43
2023-08-06T11:07:41.858Z,1.38
2023-08-06T11:10:10.636Z,0.50
2023-08-06T11:12:38.360Z,0.60
2023-08-06T11:15:06.701Z,0.60
2023-08-06T11:17:34.956Z,0.50
2023-08-06T11:20:05.499Z,0.30
2023-08-06T11:22:34.728Z,1.25
2023-08-06T11:25:02.778Z,0.70
2023-08-06T11:27:31.564Z,0.68
2023-08-06T11:29:59.183Z,0.22
2023-08-06T11:32:28.325Z,0.32
2023-08-06T11:34:57.136Z,0.65
2023-08-06T11:37:26.910Z,0.20
2023-08-06T11:39:54.776Z,0.93
2023-08-06T11:42:22.464Z,0.57
2023-08-06T11:44:50.238Z,0.00
2023-08-06T11:47:18.897Z,0.32
2023-08-06T11:49:47.825Z,0.68
2023-08-06T11:52:16.358Z,0.38
2023-08-06T11:54:45.367Z,0.57
2023-08-06T11:57:13.386Z,0.40
2023-08-06T11:59:41.188Z,0.60
2023-08-06T12:02:11.319Z,0.38
2023-08-06T12:04:57.517Z,0.60
2023-08-06T12:07:27.950Z,0.05
2023-08-06T12:09:56.942Z,0.40
2023-08-06T12:12:24.715Z,0.10
2023-08-06T12:14:52.401Z,0.38
2023-08-06T12:17:20.254Z,0.80
2023-08-06T12:19:48.597Z,0.22
2023-08-06T12:22:16.601Z,0.40
2023-08-06T12:24:44.390Z,0.47
2023-08-06T12:27:13.779Z,0.32
2023-08-06T12:29:43.063Z,0.03
2023-08-06T12:32:10.755Z,0.63
2023-08-06T12:34:51.960Z,0.32
2023-08-06T12:37:20.236Z,0.52
2023-08-06T12:39:48.153Z,0.55
2023-08-06T12:42:17.338Z,0.40
2023-08-06T12:44:45.136Z,0.25
2023-08-06T12:47:12.856Z,0.50
2023-08-06T12:49:40.524Z,0.80
2023-08-06T12:52:10.308Z,0.52
2023-08-06T12:54:38.531Z,0.75
2023-08-06T12:57:06.462Z,0.38
2023-08-06T12:59:37.976Z,0.10
2023-08-06T13:02:05.962Z,1.13
2023-08-06T13:04:35.360Z,1.20
2023-08-06T13:07:03.211Z,0.55
2023-08-06T13:09:33.104Z,0.43
2023-08-06T13:12:06.121Z,0.65
2023-08-06T13:14:33.943Z,1.55
2023-08-06T13:17:03.230Z,0.70
2023-08-06T13:19:30.983Z,0.00
2023-08-06T13:22:04.208Z,0.57
2023-08-06T13:24:32.149Z,1.08
2023-08-06T13:26:59.749Z,0.85
2023-08-06T13:29:28.039Z,1.35
2023-08-06T13:31:55.923Z,0.50
2023-08-06T13:34:24.900Z,0.57
2023-08-06T13:36:52.772Z,0.65
2023-08-06T13:39:21.039Z,0.57
2023-08-06T13:41:48.837Z,1.45
2023-08-06T13:44:16.476Z,0.40
2023-08-06T13:46:44.547Z,0.65
2023-08-06T13:49:12.412Z,0.40
2023-08-06T13:51:41.379Z,0.68
2023-08-06T13:54:09.132Z,0.38
2023-08-06T13:56:38.290Z,0.65
2023-08-06T13:59:06.477Z,0.73
2023-08-06T14:01:49.372Z,0.47
2023-08-06T14:04:18.629Z,0.47
2023-08-06T14:06:47.739Z,0.60
2023-08-06T14:09:19.439Z,0.10
2023-08-06T14:11:47.182Z,0.20
2023-08-06T14:14:14.921Z,0.28
2023-08-06T14:16:42.634Z,0.50
2023-08-06T14:19:10.456Z,0.57
2023-08-06T14:21:38.308Z,0.82
2023-08-06T14:24:07.581Z,0.43
2023-08-06T14:26:35.396Z,0.60
2023-08-06T14:29:03.314Z,0.45
2023-08-06T14:31:31.006Z,0.38
2023-08-06T14:33:58.673Z,0.40
2023-08-06T14:36:26.592Z,0.00
2023-08-06T14:39:00.485Z,0.50
2023-08-06T14:41:29.907Z,0.80
2023-08-06T14:43:57.597Z,0.52
2023-08-06T14:46:25.454Z,0.00
2023-08-06T14:48:53.281Z,0.85
2023-08-06T14:51:21.626Z,0.77
2023-08-06T14:53:50.007Z,0.30
2023-08-06T14:56:17.903Z,0.57
2023-08-06T14:58:47.043Z,0.30
2023-08-06T15:01:14.766Z,0.52
2023-08-06T15:03:42.784Z,2.05
2023-08-06T15:06:10.562Z,0.73
2023-08-06T15:08:38.396Z,0.47
2023-08-06T15:11:06.045Z,0.60
2023-08-06T15:13:33.852Z,0.28
2023-08-06T15:16:02.903Z,0.73
2023-08-06T15:18:30.767Z,0.55
2023-08-06T15:20:58.960Z,1.33
2023-08-06T15:23:27.044Z,0.50
2023-08-06T15:25:54.744Z,0.82
2023-08-06T15:28:22.497Z,0.43
2023-08-06T15:30:50.979Z,0.35
2023-08-06T15:33:20.896Z,1.10
2023-08-06T15:35:48.913Z,0.22
2023-08-06T15:38:16.796Z,0.13
2023-08-06T15:40:46.233Z,0.60
2023-08-06T15:43:14.153Z,0.00
2023-08-06T15:45:41.942Z,0.35
2023-08-06T15:48:10.193Z,1.02
2023-08-06T15:50:40.150Z,0.70
2023-08-06T15:53:08.228Z,0.77
2023-08-06T15:55:38.640Z,0.20
2023-08-06T15:58:07.020Z,0.60
2023-08-06T16:00:35.134Z,0.30
2023-08-06T16:03:04.497Z,0.60
2023-08-06T16:05:33.052Z,0.57
2023-08-06T16:08:02.318Z,0.47
2023-08-06T16:10:30.143Z,0.43
2023-08-06T16:12:57.912Z,0.63
2023-08-06T16:15:25.731Z,0.50
2023-08-06T16:17:53.862Z,0.22
2023-08-06T16:20:21.672Z,0.80
2023-08-06T16:22:49.474Z,0.00
2023-08-06T16:25:18.733Z,0.50
2023-08-06T16:27:46.619Z,0.55
2023-08-06T16:30:15.420Z,0.35
2023-08-06T16:32:43.351Z,1.08
2023-08-06T16:35:11.590Z,0.00
2023-08-06T16:37:39.884Z,0.50
2023-08-06T16:40:10.403Z,0.35
2023-08-06T16:42:39.627Z,0.70
2023-08-06T16:45:08.736Z,0.20
2023-08-06T16:47:36.657Z,0.82
2023-08-06T16:50:04.835Z,0.60
2023-08-06T16:52:32.620Z,0.00
2023-08-06T16:55:00.432Z,0.52
2023-08-06T16:57:28.086Z,0.38
2023-08-06T16:59:57.043Z,0.80
2023-08-06T17:02:24.825Z,0.03
2023-08-06T17:04:52.549Z,0.00
2023-08-06T17:07:20.200Z,0.45
2023-08-06T17:09:47.873Z,0.68
2023-08-06T17:12:19.439Z,0.50
2023-08-06T17:14:47.206Z,0.77
2023-08-06T17:17:16.524Z,0.65
2023-08-06T17:19:44.233Z,0.00
2023-08-06T17:22:12.935Z,0.40
2023-08-06T17:24:40.951Z,0.60
2023-08-06T17:27:09.413Z,0.47
2023-08-06T17:29:37.363Z,0.45
2023-08-06T17:32:05.429Z,0.32
2023-08-06T17:34:34.608Z,0.57
2023-08-06T17:37:06.060Z,0.43
2023-08-06T17:39:33.761Z,0.73
2023-08-06T17:42:04.297Z,0.03
2023-08-06T17:44:32.471Z,0.30
2023-08-06T17:47:00.517Z,1.05
2023-08-06T17:49:28.815Z,0.70
2023-08-06T17:51:57.850Z,1.88
2023-08-06T17:54:25.690Z,0.68
2023-08-06T17:56:53.384Z,0.65
2023-08-06T17:59:21.034Z,0.88
2023-08-06T18:01:48.852Z,1.00
2023-08-06T18:04:16.659Z,0.55
2023-08-06T18:06:44.345Z,0.82
2023-08-06T18:09:13.350Z,0.80
2023-08-06T18:11:40.978Z,0.43
2023-08-06T18:14:08.592Z,1.05
2023-08-06T18:16:36.276Z,0.60
2023-08-06T18:19:03.960Z,0.80
2023-08-06T18:21:31.644Z,0.60
2023-08-06T18:23:59.373Z,0.65
2023-08-06T18:26:28.357Z,0.10
2023-08-06T18:28:55.992Z,0.52
2023-08-06T18:31:23.713Z,0.93
2023-08-06T18:33:51.472Z,0.55
2023-08-06T18:36:19.172Z,0.00
2023-08-06T18:38:50.511Z,0.60
2023-08-06T18:41:19.534Z,0.13
2023-08-06T18:43:49.432Z,0.45
2023-08-06T18:46:17.132Z,0.90
2023-08-06T18:48:45.571Z,0.40
2023-08-06T18:51:13.222Z,1.10
2023-08-06T18:53:40.847Z,0.60
2023-08-06T18:56:08.570Z,0.40
2023-08-06T18:58:36.396Z,0.50
2023-08-06T19:01:05.376Z,0.35
2023-08-06T19:03:33.166Z,0.13
2023-08-06T19:06:03.021Z,0.47
2023-08-06T19:08:30.766Z,0.50
2023-08-06T19:10:58.417Z,0.47
2023-08-06T19:13:26.042Z,0.50
2023-08-06T19:15:53.680Z,0.20
2023-08-06T19:18:22.747Z,0.22
2023-08-06T19:20:50.479Z,0.05
2023-08-06T19:23:19.719Z,1.75
2023-08-06T19:25:48.745Z,0.60
2023-08-06T19:28:17.508Z,0.68
2023-08-06T19:30:45.564Z,0.20
2023-08-06T19:33:16.357Z,0.35
2023-08-06T19:35:49.040Z,0.70
2023-08-06T19:38:17.316Z,0.25
2023-08-06T19:40:45.089Z,0.00
2023-08-06T19:43:12.926Z,0.60
2023-08-06T19:45:40.970Z,0.60
2023-08-06T19:48:08.999Z,1.20
2023-08-06T19:50:36.764Z,0.30
2023-08-06T19:53:05.876Z,0.00
2023-08-06T19:55:33.556Z,0.47
2023-08-06T19:58:01.277Z,0.43
2023-08-06T20:00:29.192Z,0.45
2023-08-06T20:02:56.970Z,0.70
2023-08-06T20:05:24.668Z,0.57
2023-08-06T20:07:52.342Z,0.50
2023-08-06T20:10:21.341Z,0.47
2023-08-06T20:12:49.014Z,0.52
2023-08-06T20:15:16.725Z,0.10
2023-08-06T20:17:44.387Z,0.40
2023-08-06T20:20:12.472Z,0.43
2023-08-06T20:22:40.558Z,0.50
2023-08-06T20:25:08.608Z,1.20
2023-08-06T20:27:38.176Z,1.13
2023-08-06T20:30:06.462Z,0.03
2023-08-06T20:32:34.140Z,0.65
2023-08-06T20:35:01.815Z,1.02
2023-08-06T20:37:29.579Z,0.98
2023-08-06T20:39:57.248Z,0.60
2023-08-06T20:42:24.995Z,0.85
2023-08-06T20:44:54.056Z,0.50
2023-08-06T20:47:22.598Z,1.05
2023-08-06T20:49:50.586Z,0.63
2023-08-06T20:52:18.983Z,0.70
2023-08-06T20:54:46.935Z,0.47
2023-08-06T20:57:14.687Z,1.50
2023-08-06T20:59:42.539Z,0.43
2023-08-06T21:02:11.882Z,0.45
2023-08-06T21:04:39.953Z,0.40
2023-08-06T21:07:07.908Z,0.40
2023-08-06T21:09:35.649Z,0.28
2023-08-06T21:12:03.305Z,0.43
2023-08-06T21:14:30.967Z,1.95
2023-08-06T21:16:58.674Z,0.60
2023-08-06T21:19:27.771Z,0.60
2023-08-06T21:21:56.423Z,1.05
2023-08-06T21:24:24.230Z,0.47
2023-08-06T21:26:51.926Z,0.10
2023-08-06T21:29:19.596Z,0.55
2023-08-06T21:31:47.233Z,0.10
2023-08-06T21:34:16.241Z,0.88
2023-08-06T21:36:45.311Z,0.70
2023-08-06T21:39:12.985Z,0.70
2023-08-06T21:41:40.632Z,0.40
2023-08-06T21:44:08.248Z,0.65
2023-08-06T21:46:37.755Z,0.52
2023-08-06T21:49:05.689Z,0.70
2023-08-06T21:51:33.310Z,0.60
2023-08-06T21:54:02.397Z,0.10
2023-08-06T21:56:30.068Z,0.40
2023-08-06T21:58:59.260Z,0.38
2023-08-06T22:01:27.244Z,0.13
2023-08-06T22:03:56.914Z,0.38
2023-08-06T22:06:24.960Z,1.08
2023-08-06T22:08:54.431Z,0.45
2023-08-06T22:11:23.610Z,0.80
2023-08-06T22:13:51.442Z,1.15
2023-08-06T22:16:19.392Z,0.28
2023-08-06T22:18:47.225Z,0.50
2023-08-06T22:21:15.049Z,0.43
2023-08-06T22:23:43.765Z,0.10
2023-08-06T22:26:11.656Z,0.50
2023-08-06T22:28:51.638Z,0.40
2023-08-06T22:31:27.774Z,0.50
2023-08-06T22:33:55.705Z,0.75
2023-08-06T22:36:23.628Z,0.70
2023-08-06T22:38:51.518Z,0.68
2023-08-06T22:41:19.594Z,0.65
2023-08-06T22:43:48.869Z,0.32
2023-08-06T22:46:16.922Z,1.00
2023-08-06T22:48:44.929Z,0.47
2023-08-06T22:51:12.801Z,0.73
2023-08-06T22:53:40.653Z,0.65
2023-08-06T22:56:09.700Z,0.80
2023-08-06T22:58:38.730Z,0.47
2023-08-06T23:01:08.193Z,0.88
2023-08-06T23:03:36.482Z,0.85
2023-08-06T23:06:04.527Z,1.27
2023-08-06T23:08:32.447Z,0.47
2023-08-06T23:11:02.088Z,1.17
2023-08-06T23:13:30.070Z,0.57
2023-08-06T23:15:57.972Z,0.50
2023-08-06T23:18:27.307Z,0.63
2023-08-06T23:20:55.102Z,1.33
2023-08-06T23:23:22.965Z,1.23
2023-08-06T23:25:50.833Z,1.17
2023-08-06T23:28:18.703Z,0.70
2023-08-06T23:30:51.837Z,1.00
2023-08-06T23:33:19.755Z,1.23
2023-08-06T23:35:49.002Z,1.17
2023-08-06T23:38:16.908Z,0.10
2023-08-06T23:40:45.481Z,0.30
2023-08-06T23:43:13.340Z,1.40
2023-08-06T23:45:41.273Z,0.65
2023-08-06T23:48:10.201Z,1.23
2023-08-06T23:50:38.156Z,1.45
2023-08-06T23:53:07.560Z,0.45
2023-08-06T23:55:35.423Z,0.90
2023-08-06T23:58:03.318Z,0.10
